sensor_id;sensor_type;location;lat;lon;timestamp;P1;durP1;ratioP1;P2;durP2;ratioP2
20997;SDS011;10657;51.276;6.390;2023-09-12T00:00:06;19.35;;;9.68;;
20997;SDS011;10657;51.276;6.390;2023-09-12T00:02:33;7.97;;;4.00;;
20997;SDS011;10657;51.276;6.390;2023-09-12T00:04:59;9.57;;;4.88;;
20997;SDS011;10657;51.276;6.390;2023-09-12T00:07:26;8.73;;;5.15;;
20997;SDS011;10657;51.276;6.390;2023-09-12T00:09:53;14.32;;;7.93;;
20997;SDS011;10657;51.276;6.390;2023-09-12T00:12:21;16.30;;;8.82;;
20997;SDS011;10657;51.276;6.390;2023-09-12T00:14:49;19.05;;;10.60;;
20997;SDS011;10657;51.276;6.390;2023-09-12T00:17:16;18.13;;;11.68;;
20997;SDS011;10657;51.276;6.390;2023-09-12T00:19:43;16.50;;;9.20;;
20997;SDS011;10657;51.276;6.390;2023-09-12T00:22:09;21.45;;;11.90;;
20997;SDS011;10657;51.276;6.390;2023-09-12T00:24:36;21.23;;;12.07;;
20997;SDS011;10657;51.276;6.390;2023-09-12T00:27:04;15.20;;;9.35;;
20997;SDS011;10657;51.276;6.390;2023-09-12T00:29:31;23.70;;;13.25;;
20997;SDS011;10657;51.276;6.390;2023-09-12T00:31:58;23.67;;;14.00;;
20997;SDS011;10657;51.276;6.390;2023-09-12T00:34:25;22.17;;;12.82;;
20997;SDS011;10657;51.276;6.390;2023-09-12T00:36:52;21.05;;;12.82;;
20997;SDS011;10657;51.276;6.390;2023-09-12T00:39:18;20.73;;;12.18;;
20997;SDS011;10657;51.276;6.390;2023-09-12T00:41:45;16.00;;;10.05;;
20997;SDS011;10657;51.276;6.390;2023-09-12T00:44:12;17.58;;;9.85;;
20997;SDS011;10657;51.276;6.390;2023-09-12T00:46:39;13.80;;;9.05;;
20997;SDS011;10657;51.276;6.390;2023-09-12T00:49:06;16.42;;;10.98;;
20997;SDS011;10657;51.276;6.390;2023-09-12T00:51:35;19.65;;;13.40;;
20997;SDS011;10657;51.276;6.390;2023-09-12T00:54:03;19.88;;;12.55;;
20997;SDS011;10657;51.276;6.390;2023-09-12T00:56:30;19.55;;;13.57;;
20997;SDS011;10657;51.276;6.390;2023-09-12T00:58:57;23.65;;;14.93;;
20997;SDS011;10657;51.276;6.390;2023-09-12T01:01:24;23.63;;;14.35;;
20997;SDS011;10657;51.276;6.390;2023-09-12T01:03:51;27.73;;;15.95;;
20997;SDS011;10657;51.276;6.390;2023-09-12T01:06:19;23.05;;;14.50;;
20997;SDS011;10657;51.276;6.390;2023-09-12T01:08:50;24.63;;;14.38;;
20997;SDS011;10657;51.276;6.390;2023-09-12T01:11:16;21.63;;;14.50;;
20997;SDS011;10657;51.276;6.390;2023-09-12T01:13:44;25.08;;;14.20;;
20997;SDS011;10657;51.276;6.390;2023-09-12T01:16:10;20.20;;;12.98;;
20997;SDS011;10657;51.276;6.390;2023-09-12T01:18:37;17.67;;;10.32;;
20997;SDS011;10657;51.276;6.390;2023-09-12T01:26:41;22.00;;;14.30;;
20997;SDS011;10657;51.276;6.390;2023-09-12T01:29:30;25.60;;;16.65;;
20997;SDS011;10657;51.276;6.390;2023-09-12T01:31:57;27.52;;;15.50;;
20997;SDS011;10657;51.276;6.390;2023-09-12T01:34:26;23.88;;;15.18;;
20997;SDS011;10657;51.276;6.390;2023-09-12T01:36:53;23.00;;;14.50;;
20997;SDS011;10657;51.276;6.390;2023-09-12T01:39:19;21.33;;;14.23;;
20997;SDS011;10657;51.276;6.390;2023-09-12T01:41:46;16.83;;;9.73;;
20997;SDS011;10657;51.276;6.390;2023-09-12T01:44:16;18.50;;;11.68;;
20997;SDS011;10657;51.276;6.390;2023-09-12T01:46:44;9.27;;;4.45;;
20997;SDS011;10657;51.276;6.390;2023-09-12T01:49:12;25.95;;;16.65;;
20997;SDS011;10657;51.276;6.390;2023-09-12T01:51:41;25.10;;;15.60;;
20997;SDS011;10657;51.276;6.390;2023-09-12T01:54:08;22.90;;;15.93;;
20997;SDS011;10657;51.276;6.390;2023-09-12T01:56:36;25.70;;;16.80;;
20997;SDS011;10657;51.276;6.390;2023-09-12T01:59:04;21.05;;;12.93;;
20997;SDS011;10657;51.276;6.390;2023-09-12T02:01:32;10.82;;;5.07;;
20997;SDS011;10657;51.276;6.390;2023-09-12T02:03:58;25.77;;;16.10;;
20997;SDS011;10657;51.276;6.390;2023-09-12T02:06:25;27.40;;;16.35;;
20997;SDS011;10657;51.276;6.390;2023-09-12T02:08:52;25.70;;;15.90;;
20997;SDS011;10657;51.276;6.390;2023-09-12T02:11:18;25.95;;;16.90;;
20997;SDS011;10657;51.276;6.390;2023-09-12T02:13:45;8.68;;;4.38;;
20997;SDS011;10657;51.276;6.390;2023-09-12T02:16:12;27.80;;;15.30;;
20997;SDS011;10657;51.276;6.390;2023-09-12T02:18:39;11.02;;;4.95;;
20997;SDS011;10657;51.276;6.390;2023-09-12T02:21:06;12.68;;;7.13;;
20997;SDS011;10657;51.276;6.390;2023-09-12T02:23:33;10.32;;;5.75;;
20997;SDS011;10657;51.276;6.390;2023-09-12T02:26:00;20.58;;;12.75;;
20997;SDS011;10657;51.276;6.390;2023-09-12T02:28:26;28.13;;;15.40;;
20997;SDS011;10657;51.276;6.390;2023-09-12T02:30:53;20.17;;;12.10;;
20997;SDS011;10657;51.276;6.390;2023-09-12T02:33:20;18.33;;;12.75;;
20997;SDS011;10657;51.276;6.390;2023-09-12T02:35:47;27.27;;;18.02;;
20997;SDS011;10657;51.276;6.390;2023-09-12T02:38:14;23.17;;;16.23;;
20997;SDS011;10657;51.276;6.390;2023-09-12T02:40:41;20.83;;;12.45;;
20997;SDS011;10657;51.276;6.390;2023-09-12T02:43:07;23.70;;;15.65;;
20997;SDS011;10657;51.276;6.390;2023-09-12T02:45:34;25.75;;;16.35;;
20997;SDS011;10657;51.276;6.390;2023-09-12T02:48:01;18.75;;;11.98;;
20997;SDS011;10657;51.276;6.390;2023-09-12T02:50:28;24.08;;;16.65;;
20997;SDS011;10657;51.276;6.390;2023-09-12T02:52:55;27.15;;;17.95;;
20997;SDS011;10657;51.276;6.390;2023-09-12T02:55:21;26.38;;;17.40;;
20997;SDS011;10657;51.276;6.390;2023-09-12T02:57:48;28.33;;;17.30;;
20997;SDS011;10657;51.276;6.390;2023-09-12T03:00:15;36.17;;;28.98;;
20997;SDS011;10657;51.276;6.390;2023-09-12T03:02:42;28.08;;;17.48;;
20997;SDS011;10657;51.276;6.390;2023-09-12T03:05:09;26.45;;;16.73;;
20997;SDS011;10657;51.276;6.390;2023-09-12T03:07:35;27.98;;;17.02;;
20997;SDS011;10657;51.276;6.390;2023-09-12T03:10:02;25.30;;;17.77;;
20997;SDS011;10657;51.276;6.390;2023-09-12T03:12:29;26.48;;;17.73;;
20997;SDS011;10657;51.276;6.390;2023-09-12T03:14:56;27.42;;;18.25;;
20997;SDS011;10657;51.276;6.390;2023-09-12T03:17:23;25.52;;;17.45;;
20997;SDS011;10657;51.276;6.390;2023-09-12T03:19:50;23.02;;;15.98;;
20997;SDS011;10657;51.276;6.390;2023-09-12T03:22:16;23.75;;;16.02;;
20997;SDS011;10657;51.276;6.390;2023-09-12T03:24:43;24.23;;;16.13;;
20997;SDS011;10657;51.276;6.390;2023-09-12T03:27:11;22.52;;;13.93;;
20997;SDS011;10657;51.276;6.390;2023-09-12T03:29:38;21.20;;;12.52;;
20997;SDS011;10657;51.276;6.390;2023-09-12T03:32:05;19.45;;;13.75;;
20997;SDS011;10657;51.276;6.390;2023-09-12T03:34:32;23.08;;;15.43;;
20997;SDS011;10657;51.276;6.390;2023-09-12T03:36:58;25.55;;;16.25;;
20997;SDS011;10657;51.276;6.390;2023-09-12T03:39:25;24.40;;;16.70;;
20997;SDS011;10657;51.276;6.390;2023-09-12T03:41:52;26.15;;;18.63;;
20997;SDS011;10657;51.276;6.390;2023-09-12T03:44:19;24.58;;;16.83;;
20997;SDS011;10657;51.276;6.390;2023-09-12T03:46:45;24.85;;;15.90;;
20997;SDS011;10657;51.276;6.390;2023-09-12T03:49:12;24.92;;;17.02;;
20997;SDS011;10657;51.276;6.390;2023-09-12T03:51:38;26.52;;;17.20;;
20997;SDS011;10657;51.276;6.390;2023-09-12T03:54:05;24.92;;;16.98;;
20997;SDS011;10657;51.276;6.390;2023-09-12T03:56:32;20.83;;;15.48;;
20997;SDS011;10657;51.276;6.390;2023-09-12T03:58:59;29.75;;;17.00;;
20997;SDS011;10657;51.276;6.390;2023-09-12T04:01:27;26.15;;;17.05;;
20997;SDS011;10657;51.276;6.390;2023-09-12T04:03:54;22.67;;;16.67;;
20997;SDS011;10657;51.276;6.390;2023-09-12T04:06:21;27.42;;;17.48;;
20997;SDS011;10657;51.276;6.390;2023-09-12T04:08:48;23.95;;;16.63;;
20997;SDS011;10657;51.276;6.390;2023-09-12T04:11:15;22.67;;;16.55;;
20997;SDS011;10657;51.276;6.390;2023-09-12T04:13:44;25.00;;;15.73;;
20997;SDS011;10657;51.276;6.390;2023-09-12T04:16:11;27.45;;;15.98;;
20997;SDS011;10657;51.276;6.390;2023-09-12T04:18:38;22.45;;;15.77;;
20997;SDS011;10657;51.276;6.390;2023-09-12T04:21:05;27.10;;;16.20;;
20997;SDS011;10657;51.276;6.390;2023-09-12T04:23:32;23.55;;;15.95;;
20997;SDS011;10657;51.276;6.390;2023-09-12T04:25:59;25.88;;;18.00;;
20997;SDS011;10657;51.276;6.390;2023-09-12T04:28:29;28.52;;;17.17;;
20997;SDS011;10657;51.276;6.390;2023-09-12T04:31:02;28.48;;;17.05;;
20997;SDS011;10657;51.276;6.390;2023-09-12T04:33:30;24.67;;;16.23;;
20997;SDS011;10657;51.276;6.390;2023-09-12T04:35:57;25.63;;;16.75;;
20997;SDS011;10657;51.276;6.390;2023-09-12T04:38:26;25.10;;;16.52;;
20997;SDS011;10657;51.276;6.390;2023-09-12T04:40:56;25.38;;;16.98;;
20997;SDS011;10657;51.276;6.390;2023-09-12T04:43:23;23.55;;;16.73;;
20997;SDS011;10657;51.276;6.390;2023-09-12T04:45:50;29.30;;;17.65;;
20997;SDS011;10657;51.276;6.390;2023-09-12T04:48:17;31.23;;;17.55;;
20997;SDS011;10657;51.276;6.390;2023-09-12T04:50:44;26.50;;;18.77;;
20997;SDS011;10657;51.276;6.390;2023-09-12T04:53:10;30.38;;;18.33;;
20997;SDS011;10657;51.276;6.390;2023-09-12T04:55:38;29.08;;;19.67;;
20997;SDS011;10657;51.276;6.390;2023-09-12T04:58:05;26.83;;;18.45;;
20997;SDS011;10657;51.276;6.390;2023-09-12T05:00:32;28.67;;;19.05;;
20997;SDS011;10657;51.276;6.390;2023-09-12T05:03:00;27.15;;;19.92;;
20997;SDS011;10657;51.276;6.390;2023-09-12T05:05:30;32.20;;;22.45;;
20997;SDS011;10657;51.276;6.390;2023-09-12T05:07:56;29.85;;;19.58;;
20997;SDS011;10657;51.276;6.390;2023-09-12T05:10:23;29.77;;;21.23;;
20997;SDS011;10657;51.276;6.390;2023-09-12T05:12:50;31.15;;;21.77;;
20997;SDS011;10657;51.276;6.390;2023-09-12T05:15:17;34.88;;;23.30;;
20997;SDS011;10657;51.276;6.390;2023-09-12T05:17:43;38.30;;;22.00;;
20997;SDS011;10657;51.276;6.390;2023-09-12T05:20:10;29.27;;;20.20;;
20997;SDS011;10657;51.276;6.390;2023-09-12T05:22:37;33.25;;;22.17;;
20997;SDS011;10657;51.276;6.390;2023-09-12T05:25:04;34.90;;;23.00;;
20997;SDS011;10657;51.276;6.390;2023-09-12T05:27:31;27.85;;;20.70;;
20997;SDS011;10657;51.276;6.390;2023-09-12T05:29:58;29.45;;;21.65;;
20997;SDS011;10657;51.276;6.390;2023-09-12T05:32:24;31.45;;;22.90;;
20997;SDS011;10657;51.276;6.390;2023-09-12T05:34:51;31.45;;;22.77;;
20997;SDS011;10657;51.276;6.390;2023-09-12T05:37:28;25.13;;;15.70;;
20997;SDS011;10657;51.276;6.390;2023-09-12T05:39:55;32.65;;;18.15;;
20997;SDS011;10657;51.276;6.390;2023-09-12T05:42:21;27.60;;;18.58;;
20997;SDS011;10657;51.276;6.390;2023-09-12T05:44:48;27.67;;;18.02;;
20997;SDS011;10657;51.276;6.390;2023-09-12T05:47:15;25.10;;;17.42;;
20997;SDS011;10657;51.276;6.390;2023-09-12T05:49:42;25.23;;;17.13;;
20997;SDS011;10657;51.276;6.390;2023-09-12T05:52:09;22.73;;;15.90;;
20997;SDS011;10657;51.276;6.390;2023-09-12T05:54:37;22.55;;;15.43;;
20997;SDS011;10657;51.276;6.390;2023-09-12T05:57:04;19.17;;;11.38;;
20997;SDS011;10657;51.276;6.390;2023-09-12T05:59:34;21.52;;;14.25;;
20997;SDS011;10657;51.276;6.390;2023-09-12T06:02:02;22.75;;;14.07;;
20997;SDS011;10657;51.276;6.390;2023-09-12T06:04:30;18.48;;;12.45;;
20997;SDS011;10657;51.276;6.390;2023-09-12T06:06:58;19.67;;;13.32;;
20997;SDS011;10657;51.276;6.390;2023-09-12T06:09:25;19.83;;;13.25;;
20997;SDS011;10657;51.276;6.390;2023-09-12T06:11:52;17.20;;;11.60;;
20997;SDS011;10657;51.276;6.390;2023-09-12T06:14:20;20.17;;;11.75;;
20997;SDS011;10657;51.276;6.390;2023-09-12T06:16:47;19.77;;;12.50;;
20997;SDS011;10657;51.276;6.390;2023-09-12T06:19:14;21.10;;;13.57;;
20997;SDS011;10657;51.276;6.390;2023-09-12T06:21:41;23.27;;;15.18;;
20997;SDS011;10657;51.276;6.390;2023-09-12T06:26:39;20.48;;;12.50;;
20997;SDS011;10657;51.276;6.390;2023-09-12T06:29:06;19.50;;;13.90;;
20997;SDS011;10657;51.276;6.390;2023-09-12T06:31:33;23.30;;;15.40;;
20997;SDS011;10657;51.276;6.390;2023-09-12T06:34:01;24.13;;;14.23;;
20997;SDS011;10657;51.276;6.390;2023-09-12T06:36:28;19.58;;;14.45;;
20997;SDS011;10657;51.276;6.390;2023-09-12T06:38:56;20.75;;;13.45;;
20997;SDS011;10657;51.276;6.390;2023-09-12T06:41:23;20.90;;;12.35;;
20997;SDS011;10657;51.276;6.390;2023-09-12T06:43:50;19.30;;;13.57;;
20997;SDS011;10657;51.276;6.390;2023-09-12T06:46:17;21.40;;;12.70;;
20997;SDS011;10657;51.276;6.390;2023-09-12T06:48:44;23.75;;;14.98;;
20997;SDS011;10657;51.276;6.390;2023-09-12T06:51:11;21.73;;;14.23;;
20997;SDS011;10657;51.276;6.390;2023-09-12T06:53:43;22.27;;;14.48;;
20997;SDS011;10657;51.276;6.390;2023-09-12T06:56:10;21.05;;;14.25;;
20997;SDS011;10657;51.276;6.390;2023-09-12T06:58:37;16.38;;;10.60;;
20997;SDS011;10657;51.276;6.390;2023-09-12T07:01:04;17.58;;;11.95;;
20997;SDS011;10657;51.276;6.390;2023-09-12T07:03:32;20.02;;;12.20;;
20997;SDS011;10657;51.276;6.390;2023-09-12T07:06:00;18.73;;;12.95;;
20997;SDS011;10657;51.276;6.390;2023-09-12T07:08:28;19.75;;;12.45;;
20997;SDS011;10657;51.276;6.390;2023-09-12T07:10:56;19.77;;;12.95;;
20997;SDS011;10657;51.276;6.390;2023-09-12T07:13:23;18.70;;;12.23;;
20997;SDS011;10657;51.276;6.390;2023-09-12T07:15:50;20.90;;;12.48;;
20997;SDS011;10657;51.276;6.390;2023-09-12T07:18:17;20.75;;;12.18;;
20997;SDS011;10657;51.276;6.390;2023-09-12T07:20:45;22.52;;;14.38;;
20997;SDS011;10657;51.276;6.390;2023-09-12T07:23:12;24.20;;;16.50;;
20997;SDS011;10657;51.276;6.390;2023-09-12T07:25:39;22.33;;;15.00;;
20997;SDS011;10657;51.276;6.390;2023-09-12T07:28:07;25.55;;;15.57;;
20997;SDS011;10657;51.276;6.390;2023-09-12T07:30:34;22.20;;;14.88;;
20997;SDS011;10657;51.276;6.390;2023-09-12T07:33:02;23.73;;;15.00;;
20997;SDS011;10657;51.276;6.390;2023-09-12T07:35:30;22.50;;;14.38;;
20997;SDS011;10657;51.276;6.390;2023-09-12T07:37:57;22.05;;;14.00;;
20997;SDS011;10657;51.276;6.390;2023-09-12T07:40:24;24.40;;;14.68;;
20997;SDS011;10657;51.276;6.390;2023-09-12T07:42:50;24.00;;;15.15;;
20997;SDS011;10657;51.276;6.390;2023-09-12T07:45:17;22.65;;;14.73;;
20997;SDS011;10657;51.276;6.390;2023-09-12T07:47:44;22.00;;;14.25;;
20997;SDS011;10657;51.276;6.390;2023-09-12T07:50:10;21.25;;;13.07;;
20997;SDS011;10657;51.276;6.390;2023-09-12T07:52:37;21.05;;;13.98;;
20997;SDS011;10657;51.276;6.390;2023-09-12T07:55:04;19.50;;;13.50;;
20997;SDS011;10657;51.276;6.390;2023-09-12T07:57:31;18.45;;;12.57;;
20997;SDS011;10657;51.276;6.390;2023-09-12T07:59:58;16.67;;;10.90;;
20997;SDS011;10657;51.276;6.390;2023-09-12T08:02:24;18.23;;;11.10;;
20997;SDS011;10657;51.276;6.390;2023-09-12T08:04:51;16.88;;;10.00;;
20997;SDS011;10657;51.276;6.390;2023-09-12T08:07:19;12.32;;;7.93;;
20997;SDS011;10657;51.276;6.390;2023-09-12T08:09:51;15.57;;;7.05;;
20997;SDS011;10657;51.276;6.390;2023-09-12T08:12:23;11.45;;;6.20;;
20997;SDS011;10657;51.276;6.390;2023-09-12T08:14:58;10.93;;;6.70;;
20997;SDS011;10657;51.276;6.390;2023-09-12T08:17:26;12.82;;;6.88;;
20997;SDS011;10657;51.276;6.390;2023-09-12T08:19:53;14.02;;;8.15;;
20997;SDS011;10657;51.276;6.390;2023-09-12T08:22:19;14.20;;;8.30;;
20997;SDS011;10657;51.276;6.390;2023-09-12T08:24:46;18.48;;;9.65;;
20997;SDS011;10657;51.276;6.390;2023-09-12T08:27:13;13.88;;;9.15;;
20997;SDS011;10657;51.276;6.390;2023-09-12T08:29:40;14.57;;;9.18;;
20997;SDS011;10657;51.276;6.390;2023-09-12T08:32:08;13.20;;;8.90;;
20997;SDS011;10657;51.276;6.390;2023-09-12T08:34:35;15.93;;;9.13;;
20997;SDS011;10657;51.276;6.390;2023-09-12T08:37:01;14.10;;;9.10;;
20997;SDS011;10657;51.276;6.390;2023-09-12T08:39:38;15.00;;;9.20;;
20997;SDS011;10657;51.276;6.390;2023-09-12T08:42:14;13.77;;;8.73;;
20997;SDS011;10657;51.276;6.390;2023-09-12T08:44:42;11.57;;;6.95;;
20997;SDS011;10657;51.276;6.390;2023-09-12T08:47:09;12.50;;;6.90;;
20997;SDS011;10657;51.276;6.390;2023-09-12T08:49:37;10.48;;;6.10;;
20997;SDS011;10657;51.276;6.390;2023-09-12T08:52:04;13.02;;;7.45;;
20997;SDS011;10657;51.276;6.390;2023-09-12T08:54:32;13.73;;;7.45;;
20997;SDS011;10657;51.276;6.390;2023-09-12T08:57:02;11.85;;;7.85;;
20997;SDS011;10657;51.276;6.390;2023-09-12T08:59:34;12.77;;;7.60;;
20997;SDS011;10657;51.276;6.390;2023-09-12T09:02:01;11.60;;;7.18;;
20997;SDS011;10657;51.276;6.390;2023-09-12T09:04:32;10.68;;;6.50;;
20997;SDS011;10657;51.276;6.390;2023-09-12T09:07:00;11.18;;;6.82;;
20997;SDS011;10657;51.276;6.390;2023-09-12T09:09:29;9.95;;;5.50;;
20997;SDS011;10657;51.276;6.390;2023-09-12T09:11:56;9.30;;;5.13;;
20997;SDS011;10657;51.276;6.390;2023-09-12T09:14:23;10.15;;;6.13;;
20997;SDS011;10657;51.276;6.390;2023-09-12T09:16:50;11.38;;;5.90;;
20997;SDS011;10657;51.276;6.390;2023-09-12T09:19:17;13.00;;;6.45;;
20997;SDS011;10657;51.276;6.390;2023-09-12T09:21:46;11.00;;;5.40;;
20997;SDS011;10657;51.276;6.390;2023-09-12T09:24:13;9.95;;;6.10;;
20997;SDS011;10657;51.276;6.390;2023-09-12T09:26:47;12.00;;;6.43;;
20997;SDS011;10657;51.276;6.390;2023-09-12T09:29:19;11.68;;;6.28;;
20997;SDS011;10657;51.276;6.390;2023-09-12T09:31:47;10.52;;;5.63;;
20997;SDS011;10657;51.276;6.390;2023-09-12T09:34:16;11.07;;;6.13;;
20997;SDS011;10657;51.276;6.390;2023-09-12T09:36:52;11.55;;;6.90;;
20997;SDS011;10657;51.276;6.390;2023-09-12T09:39:20;13.10;;;7.18;;
20997;SDS011;10657;51.276;6.390;2023-09-12T09:41:49;10.48;;;6.10;;
20997;SDS011;10657;51.276;6.390;2023-09-12T09:44:24;11.73;;;6.18;;
20997;SDS011;10657;51.276;6.390;2023-09-12T09:46:58;13.68;;;7.20;;
20997;SDS011;10657;51.276;6.390;2023-09-12T09:49:32;11.13;;;6.93;;
20997;SDS011;10657;51.276;6.390;2023-09-12T09:52:05;9.52;;;5.90;;
20997;SDS011;10657;51.276;6.390;2023-09-12T09:54:32;14.18;;;8.63;;
20997;SDS011;10657;51.276;6.390;2023-09-12T09:56:59;10.70;;;6.30;;
20997;SDS011;10657;51.276;6.390;2023-09-12T09:59:26;9.20;;;4.97;;
20997;SDS011;10657;51.276;6.390;2023-09-12T10:01:57;13.38;;;7.43;;
20997;SDS011;10657;51.276;6.390;2023-09-12T10:04:26;16.90;;;7.25;;
20997;SDS011;10657;51.276;6.390;2023-09-12T10:06:58;10.68;;;6.53;;
20997;SDS011;10657;51.276;6.390;2023-09-12T10:09:26;9.43;;;4.65;;
20997;SDS011;10657;51.276;6.390;2023-09-12T10:11:54;8.80;;;4.97;;
20997;SDS011;10657;51.276;6.390;2023-09-12T10:14:22;10.85;;;6.00;;
20997;SDS011;10657;51.276;6.390;2023-09-12T10:16:50;8.02;;;5.03;;
20997;SDS011;10657;51.276;6.390;2023-09-12T10:19:19;12.95;;;7.05;;
20997;SDS011;10657;51.276;6.390;2023-09-12T10:24:43;11.43;;;7.35;;
20997;SDS011;10657;51.276;6.390;2023-09-12T10:27:12;12.43;;;7.30;;
20997;SDS011;10657;51.276;6.390;2023-09-12T10:29:39;14.90;;;7.05;;
20997;SDS011;10657;51.276;6.390;2023-09-12T10:32:06;12.65;;;7.55;;
20997;SDS011;10657;51.276;6.390;2023-09-12T10:34:34;11.77;;;8.15;;
20997;SDS011;10657;51.276;6.390;2023-09-12T10:37:02;14.73;;;8.07;;
20997;SDS011;10657;51.276;6.390;2023-09-12T10:39:32;13.95;;;9.18;;
20997;SDS011;10657;51.276;6.390;2023-09-12T10:41:59;13.82;;;9.32;;
20997;SDS011;10657;51.276;6.390;2023-09-12T10:44:27;13.13;;;8.38;;
20997;SDS011;10657;51.276;6.390;2023-09-12T10:46:54;15.00;;;8.40;;
20997;SDS011;10657;51.276;6.390;2023-09-12T10:49:21;13.88;;;7.78;;
20997;SDS011;10657;51.276;6.390;2023-09-12T10:51:52;15.63;;;9.77;;
20997;SDS011;10657;51.276;6.390;2023-09-12T10:54:23;16.23;;;10.98;;
20997;SDS011;10657;51.276;6.390;2023-09-12T10:57:04;16.52;;;10.93;;
20997;SDS011;10657;51.276;6.390;2023-09-12T10:59:38;16.15;;;10.55;;
20997;SDS011;10657;51.276;6.390;2023-09-12T11:04:58;17.08;;;10.75;;
20997;SDS011;10657;51.276;6.390;2023-09-12T11:07:30;14.13;;;9.35;;
20997;SDS011;10657;51.276;6.390;2023-09-12T11:12:58;13.70;;;7.88;;
20997;SDS011;10657;51.276;6.390;2023-09-12T11:15:26;12.82;;;7.78;;
20997;SDS011;10657;51.276;6.390;2023-09-12T11:18:04;18.38;;;10.88;;
20997;SDS011;10657;51.276;6.390;2023-09-12T11:23:29;11.93;;;7.28;;
20997;SDS011;10657;51.276;6.390;2023-09-12T11:26:06;13.57;;;8.38;;
20997;SDS011;10657;51.276;6.390;2023-09-12T11:28:34;13.35;;;6.43;;
20997;SDS011;10657;51.276;6.390;2023-09-12T11:31:01;13.25;;;8.00;;
20997;SDS011;10657;51.276;6.390;2023-09-12T11:33:28;10.07;;;5.38;;
20997;SDS011;10657;51.276;6.390;2023-09-12T11:35:55;11.38;;;6.75;;
20997;SDS011;10657;51.276;6.390;2023-09-12T11:38:30;24.55;;;9.23;;
20997;SDS011;10657;51.276;6.390;2023-09-12T11:40:58;13.88;;;8.27;;
20997;SDS011;10657;51.276;6.390;2023-09-12T11:43:25;15.88;;;8.70;;
20997;SDS011;10657;51.276;6.390;2023-09-12T11:45:54;13.13;;;7.18;;
20997;SDS011;10657;51.276;6.390;2023-09-12T11:48:22;14.25;;;6.38;;
20997;SDS011;10657;51.276;6.390;2023-09-12T11:50:49;9.88;;;6.40;;
20997;SDS011;10657;51.276;6.390;2023-09-12T11:53:19;10.82;;;7.20;;
20997;SDS011;10657;51.276;6.390;2023-09-12T11:55:50;11.43;;;5.78;;
20997;SDS011;10657;51.276;6.390;2023-09-12T11:58:19;18.08;;;7.78;;
20997;SDS011;10657;51.276;6.390;2023-09-12T12:00:50;11.32;;;6.00;;
20997;SDS011;10657;51.276;6.390;2023-09-12T12:03:19;11.38;;;6.90;;
20997;SDS011;10657;51.276;6.390;2023-09-12T12:05:48;12.13;;;7.45;;
20997;SDS011;10657;51.276;6.390;2023-09-12T12:08:16;13.77;;;7.60;;
20997;SDS011;10657;51.276;6.390;2023-09-12T12:10:50;10.35;;;6.57;;
20997;SDS011;10657;51.276;6.390;2023-09-12T12:13:18;14.38;;;8.55;;
20997;SDS011;10657;51.276;6.390;2023-09-12T12:15:45;11.60;;;5.47;;
20997;SDS011;10657;51.276;6.390;2023-09-12T12:18:13;11.82;;;7.00;;
20997;SDS011;10657;51.276;6.390;2023-09-12T12:20:40;13.80;;;7.43;;
20997;SDS011;10657;51.276;6.390;2023-09-12T12:23:07;11.35;;;5.90;;
20997;SDS011;10657;51.276;6.390;2023-09-12T12:25:34;10.80;;;6.05;;
20997;SDS011;10657;51.276;6.390;2023-09-12T12:28:02;11.70;;;6.82;;
20997;SDS011;10657;51.276;6.390;2023-09-12T12:30:30;13.95;;;7.65;;
20997;SDS011;10657;51.276;6.390;2023-09-12T12:33:02;12.32;;;7.78;;
20997;SDS011;10657;51.276;6.390;2023-09-12T12:36:03;12.05;;;7.75;;
20997;SDS011;10657;51.276;6.390;2023-09-12T12:38:36;10.52;;;5.88;;
20997;SDS011;10657;51.276;6.390;2023-09-12T12:41:22;13.23;;;6.82;;
20997;SDS011;10657;51.276;6.390;2023-09-12T12:43:58;9.13;;;4.57;;
20997;SDS011;10657;51.276;6.390;2023-09-12T12:46:29;8.07;;;4.35;;
20997;SDS011;10657;51.276;6.390;2023-09-12T12:48:56;13.60;;;7.50;;
20997;SDS011;10657;51.276;6.390;2023-09-12T12:51:24;12.30;;;8.63;;
20997;SDS011;10657;51.276;6.390;2023-09-12T12:53:55;11.48;;;7.70;;
20997;SDS011;10657;51.276;6.390;2023-09-12T12:56:29;10.95;;;7.22;;
20997;SDS011;10657;51.276;6.390;2023-09-12T12:58:58;11.38;;;5.75;;
20997;SDS011;10657;51.276;6.390;2023-09-12T13:01:29;17.85;;;9.25;;
20997;SDS011;10657;51.276;6.390;2023-09-12T13:03:56;15.68;;;8.15;;
20997;SDS011;10657;51.276;6.390;2023-09-12T13:06:23;9.10;;;4.57;;
20997;SDS011;10657;51.276;6.390;2023-09-12T13:08:51;11.13;;;6.65;;
20997;SDS011;10657;51.276;6.390;2023-09-12T13:11:18;10.23;;;5.32;;
20997;SDS011;10657;51.276;6.390;2023-09-12T13:13:45;12.23;;;8.00;;
20997;SDS011;10657;51.276;6.390;2023-09-12T13:16:14;11.73;;;7.00;;
20997;SDS011;10657;51.276;6.390;2023-09-12T13:18:41;11.27;;;7.65;;
20997;SDS011;10657;51.276;6.390;2023-09-12T13:21:08;12.32;;;8.25;;
20997;SDS011;10657;51.276;6.390;2023-09-12T13:23:37;10.55;;;5.13;;
20997;SDS011;10657;51.276;6.390;2023-09-12T13:26:05;14.07;;;6.75;;
20997;SDS011;10657;51.276;6.390;2023-09-12T13:28:33;12.95;;;7.97;;
20997;SDS011;10657;51.276;6.390;2023-09-12T13:31:00;10.48;;;6.60;;
20997;SDS011;10657;51.276;6.390;2023-09-12T13:33:27;9.65;;;5.13;;
20997;SDS011;10657;51.276;6.390;2023-09-12T13:35:54;11.38;;;4.35;;
20997;SDS011;10657;51.276;6.390;2023-09-12T13:38:21;30.65;;;23.80;;
20997;SDS011;10657;51.276;6.390;2023-09-12T13:40:49;9.65;;;6.03;;
20997;SDS011;10657;51.276;6.390;2023-09-12T13:43:15;11.90;;;6.25;;
20997;SDS011;10657;51.276;6.390;2023-09-12T13:45:42;8.55;;;4.10;;
20997;SDS011;10657;51.276;6.390;2023-09-12T13:48:09;9.98;;;5.47;;
20997;SDS011;10657;51.276;6.390;2023-09-12T13:50:38;9.23;;;5.07;;
20997;SDS011;10657;51.276;6.390;2023-09-12T13:53:05;8.10;;;3.58;;
20997;SDS011;10657;51.276;6.390;2023-09-12T13:55:33;7.78;;;4.20;;
20997;SDS011;10657;51.276;6.390;2023-09-12T13:58:14;7.20;;;3.15;;
20997;SDS011;10657;51.276;6.390;2023-09-12T14:00:41;7.57;;;4.30;;
20997;SDS011;10657;51.276;6.390;2023-09-12T14:03:07;13.70;;;6.63;;
20997;SDS011;10657;51.276;6.390;2023-09-12T14:05:34;11.48;;;7.22;;
20997;SDS011;10657;51.276;6.390;2023-09-12T14:08:02;7.55;;;3.55;;
20997;SDS011;10657;51.276;6.390;2023-09-12T14:10:29;6.80;;;3.70;;
20997;SDS011;10657;51.276;6.390;2023-09-12T14:13:03;7.68;;;3.58;;
20997;SDS011;10657;51.276;6.390;2023-09-12T14:15:46;7.07;;;3.15;;
20997;SDS011;10657;51.276;6.390;2023-09-12T14:18:13;8.15;;;3.40;;
20997;SDS011;10657;51.276;6.390;2023-09-12T14:20:41;7.63;;;3.58;;
20997;SDS011;10657;51.276;6.390;2023-09-12T14:23:08;15.27;;;6.55;;
20997;SDS011;10657;51.276;6.390;2023-09-12T14:25:35;13.25;;;6.80;;
20997;SDS011;10657;51.276;6.390;2023-09-12T14:28:03;9.82;;;5.85;;
20997;SDS011;10657;51.276;6.390;2023-09-12T14:30:31;7.50;;;3.00;;
20997;SDS011;10657;51.276;6.390;2023-09-12T14:33:02;9.38;;;3.97;;
20997;SDS011;10657;51.276;6.390;2023-09-12T14:35:29;6.35;;;3.17;;
20997;SDS011;10657;51.276;6.390;2023-09-12T14:37:56;6.75;;;3.20;;
20997;SDS011;10657;51.276;6.390;2023-09-12T14:40:24;15.52;;;8.93;;
20997;SDS011;10657;51.276;6.390;2023-09-12T14:42:53;5.90;;;2.65;;
20997;SDS011;10657;51.276;6.390;2023-09-12T14:45:20;7.10;;;3.25;;
20997;SDS011;10657;51.276;6.390;2023-09-12T14:47:47;9.57;;;4.53;;
20997;SDS011;10657;51.276;6.390;2023-09-12T14:50:14;10.90;;;4.95;;
20997;SDS011;10657;51.276;6.390;2023-09-12T14:52:41;8.15;;;3.08;;